createdAt,value
2023-03-26T00:01:23.711Z,98010.03
2023-03-26T00:03:57.979Z,98011.78
2023-03-26T00:06:36.706Z,98023.38
2023-03-26T00:09:04.830Z,98019.97
2023-03-26T00:11:31.559Z,98021.00
2023-03-26T00:13:58.902Z,98019.25
2023-03-26T00:16:29.847Z,98022.69
2023-03-26T00:18:57.812Z,98021.72
2023-03-26T00:21:28.122Z,98009.00
2023-03-26T00:23:58.610Z,98018.84
2023-03-26T00:26:27.169Z,98021.06
2023-03-26T00:28:54.716Z,98008.69
2023-03-26T00:31:22.060Z,97986.31
2023-03-26T00:33:54.315Z,98002.84
2023-03-26T00:36:22.811Z,98010.69
2023-03-26T00:38:49.616Z,98002.06
2023-03-26T00:41:22.659Z,98053.84
2023-03-26T00:43:51.985Z,98018.00
2023-03-26T00:46:18.793Z,98044.63
2023-03-26T00:48:46.716Z,98001.56
2023-03-26T00:51:15.508Z,98016.00
2023-03-26T00:53:45.003Z,98008.44
2023-03-26T00:56:12.177Z,98009.38
2023-03-26T00:58:38.959Z,98004.47
2023-03-26T01:01:08.825Z,98008.84
2023-03-26T01:03:38.259Z,98005.31
2023-03-26T01:06:22.713Z,98014.34
2023-03-26T01:08:51.181Z,98013.81
2023-03-26T01:11:23.940Z,98014.06
2023-03-26T01:14:08.630Z,98005.59
2023-03-26T01:16:38.160Z,98022.91
2023-03-26T01:19:22.830Z,98015.94
2023-03-26T01:21:49.659Z,98017.44
2023-03-26T01:24:16.363Z,98001.78
2023-03-26T01:26:52.816Z,97989.91
2023-03-26T01:29:52.851Z,97994.31
2023-03-26T01:32:44.192Z,97991.75
2023-03-26T01:35:27.161Z,97994.69
2023-03-26T01:38:24.680Z,98006.41
2023-03-26T01:41:07.041Z,98003.25
2023-03-26T01:43:46.029Z,97997.19
2023-03-26T01:46:15.924Z,98001.59
2023-03-26T01:48:44.822Z,97982.91
2023-03-26T01:51:13.243Z,97978.41
2023-03-26T01:53:46.102Z,97977.38
2023-03-26T01:56:25.968Z,97972.94
2023-03-26T01:59:22.290Z,97970.41
2023-03-26T02:02:11.705Z,97959.13
2023-03-26T02:04:44.641Z,97935.72
2023-03-26T02:07:20.915Z,97932.25
2023-03-26T02:09:55.384Z,97940.22
2023-03-26T02:12:23.282Z,97947.50
2023-03-26T02:14:50.612Z,97947.44
2023-03-26T02:17:19.149Z,97947.44
2023-03-26T02:19:45.750Z,97950.25
2023-03-26T02:22:15.716Z,97941.47
2023-03-26T02:24:45.086Z,97949.38
2023-03-26T02:27:12.416Z,97957.84
2023-03-26T02:29:41.029Z,97965.72
2023-03-26T02:32:14.018Z,97953.56
2023-03-26T02:34:41.626Z,97961.44
2023-03-26T02:37:09.789Z,97930.69
2023-03-26T02:39:38.588Z,97953.75
2023-03-26T02:42:21.307Z,97951.44
2023-03-26T02:44:49.607Z,97959.44
2023-03-26T02:47:19.480Z,97945.25
2023-03-26T02:49:52.076Z,97936.31
2023-03-26T02:52:29.696Z,97933.44
2023-03-26T02:54:58.329Z,97929.91
2023-03-26T02:57:26.264Z,97934.25
2023-03-26T03:00:17.098Z,97935.22
2023-03-26T03:03:04.934Z,97938.75
2023-03-26T03:05:32.981Z,97945.34
2023-03-26T03:08:28.496Z,97953.38
2023-03-26T03:11:18.211Z,97956.56
2023-03-26T03:13:47.088Z,97938.13
2023-03-26T03:16:25.844Z,97940.50
2023-03-26T03:18:58.054Z,97947.53
2023-03-26T03:21:33.528Z,97946.44
2023-03-26T03:24:00.649Z,97951.66
2023-03-26T03:26:30.910Z,97949.69
2023-03-26T03:29:04.576Z,97950.19
2023-03-26T03:31:32.975Z,97952.53
2023-03-26T03:34:03.834Z,97964.72
2023-03-26T03:36:38.384Z,97961.19
2023-03-26T03:39:15.580Z,97955.03
2023-03-26T03:41:42.503Z,97955.00
2023-03-26T03:44:13.752Z,97961.88
2023-03-26T03:46:40.788Z,97946.91
2023-03-26T03:49:07.487Z,97954.53
2023-03-26T03:51:37.324Z,97959.16
2023-03-26T03:54:17.974Z,97959.94
2023-03-26T03:56:49.244Z,97968.25
2023-03-26T03:59:16.045Z,97965.47
2023-03-26T04:01:46.720Z,97962.66
2023-03-26T04:04:24.726Z,97962.72
2023-03-26T04:06:57.710Z,97962.84
2023-03-26T04:09:27.730Z,97952.47
2023-03-26T04:11:58.223Z,97949.84
2023-03-26T04:14:51.101Z,97944.03
2023-03-26T04:17:21.887Z,97950.38
2023-03-26T04:19:52.914Z,97942.38
2023-03-26T04:22:20.000Z,97942.13
2023-03-26T04:24:56.816Z,97930.69
2023-03-26T04:27:41.777Z,97940.28
2023-03-26T04:30:44.981Z,97941.88
2023-03-26T04:33:34.818Z,97932.69
2023-03-26T04:36:03.205Z,97936.97
2023-03-26T04:38:42.123Z,97902.19
2023-03-26T04:41:12.457Z,97913.69
2023-03-26T04:43:50.813Z,97909.03
2023-03-26T04:46:33.457Z,97928.13
2023-03-26T04:49:08.218Z,97934.06
2023-03-26T04:51:42.005Z,97930.00
2023-03-26T04:54:24.563Z,97925.97
2023-03-26T04:57:04.242Z,97926.09
2023-03-26T04:59:38.116Z,97917.00
2023-03-26T05:02:09.724Z,97926.69
2023-03-26T05:04:50.059Z,97929.47
2023-03-26T05:07:21.269Z,97932.19
2023-03-26T05:09:54.746Z,97927.03
2023-03-26T05:12:37.235Z,97935.03
2023-03-26T05:15:09.514Z,97931.63
2023-03-26T05:17:59.141Z,97940.31
2023-03-26T05:20:39.170Z,97929.94
2023-03-26T05:23:08.158Z,97928.88
2023-03-26T05:25:41.676Z,97913.72
2023-03-26T05:28:15.975Z,97923.75
2023-03-26T05:30:54.785Z,97921.72
2023-03-26T05:33:24.522Z,97912.63
2023-03-26T05:36:09.670Z,97906.44
2023-03-26T05:38:37.160Z,97882.59
2023-03-26T05:41:08.364Z,97901.44
2023-03-26T05:43:37.637Z,97899.91
2023-03-26T05:46:12.079Z,97897.91
2023-03-26T05:48:39.389Z,97897.53
2023-03-26T05:51:07.009Z,97897.91
2023-03-26T05:53:34.801Z,97895.34
2023-03-26T05:56:30.461Z,97905.91
2023-03-26T05:59:26.591Z,97896.03
2023-03-26T06:02:11.774Z,97887.03
2023-03-26T06:05:12.490Z,97892.09
2023-03-26T06:07:45.256Z,97889.22
2023-03-26T06:10:19.986Z,97889.63
2023-03-26T06:12:47.106Z,97878.69
2023-03-26T06:15:14.151Z,97889.38
2023-03-26T06:17:58.910Z,97886.31
2023-03-26T06:20:47.041Z,97883.75
2023-03-26T06:23:23.421Z,97888.66
2023-03-26T06:26:05.908Z,97884.16
2023-03-26T06:28:49.453Z,97880.13
2023-03-26T06:31:35.287Z,97873.47
2023-03-26T06:34:20.614Z,97870.34
2023-03-26T06:36:48.855Z,97866.28
2023-03-26T06:39:16.092Z,97844.91
2023-03-26T06:41:54.476Z,97864.28
2023-03-26T06:44:39.550Z,97860.69
2023-03-26T06:47:24.960Z,97857.94
2023-03-26T06:50:11.919Z,97847.28
2023-03-26T06:52:58.954Z,97846.56
2023-03-26T06:55:41.828Z,97842.28
2023-03-26T06:58:38.564Z,97846.25
2023-03-26T07:01:24.210Z,97867.81
2023-03-26T07:04:09.658Z,97876.44
2023-03-26T07:06:54.979Z,97891.00
2023-03-26T07:09:40.830Z,97881.97
2023-03-26T07:12:43.383Z,97876.13
2023-03-26T07:15:29.034Z,97862.88
2023-03-26T07:18:11.664Z,97885.47
2023-03-26T07:20:42.425Z,97884.72
2023-03-26T07:23:11.736Z,97872.47
2023-03-26T07:26:36.431Z,97877.63
2023-03-26T07:29:22.482Z,97852.88
2023-03-26T07:32:23.999Z,97849.00
2023-03-26T07:35:29.412Z,97854.66
2023-03-26T07:38:17.686Z,97844.09
2023-03-26T07:41:33.350Z,97839.44
2023-03-26T07:44:41.590Z,97837.06
2023-03-26T07:47:26.421Z,97849.28
2023-03-26T07:50:19.213Z,97821.34
2023-03-26T07:53:00.114Z,97821.56
2023-03-26T07:55:47.668Z,97839.34
2023-03-26T07:59:06.687Z,97836.09
2023-03-26T08:02:29.539Z,97867.50
2023-03-26T08:05:19.789Z,97876.09
2023-03-26T08:08:18.135Z,97855.63
2023-03-26T08:11:09.686Z,97831.94
2023-03-26T08:14:11.207Z,97824.56
2023-03-26T08:16:51.344Z,97864.03
2023-03-26T08:19:30.876Z,97899.34
2023-03-26T08:22:26.351Z,97893.34
2023-03-26T08:25:04.356Z,97878.31
2023-03-26T08:27:38.089Z,97870.50
2023-03-26T08:30:14.639Z,97906.06
2023-03-26T08:32:41.894Z,97906.13
2023-03-26T08:35:13.471Z,97888.00
2023-03-26T08:37:40.553Z,97892.69
2023-03-26T08:40:09.676Z,97890.97
2023-03-26T08:43:24.597Z,97878.03
2023-03-26T08:46:11.329Z,97873.94
2023-03-26T08:48:54.329Z,97879.47
2023-03-26T08:51:24.155Z,97896.38
2023-03-26T08:54:09.327Z,97897.44
2023-03-26T08:56:54.199Z,97899.56
2023-03-26T08:59:41.950Z,97903.94
2023-03-26T09:02:51.501Z,97891.72
2023-03-26T09:05:47.591Z,97886.56
2023-03-26T09:08:36.806Z,97885.50
2023-03-26T09:11:25.006Z,97884.25
2023-03-26T09:14:30.275Z,97873.88
2023-03-26T09:16:59.867Z,97877.97
2023-03-26T09:20:02.913Z,97873.03
2023-03-26T09:23:05.672Z,97867.03
2023-03-26T09:26:09.477Z,97858.94
2023-03-26T09:28:54.550Z,97854.19
2023-03-26T09:31:51.638Z,97850.91
2023-03-26T09:34:43.324Z,97848.59
2023-03-26T09:37:29.067Z,97846.03
2023-03-26T09:40:18.697Z,97828.91
2023-03-26T09:42:45.518Z,97829.81
2023-03-26T09:45:31.473Z,97824.69
2023-03-26T09:48:24.058Z,97823.00
2023-03-26T09:51:10.787Z,97825.19
2023-03-26T09:53:59.266Z,97816.84
2023-03-26T09:57:14.136Z,97809.19
2023-03-26T09:59:43.592Z,97806.69
2023-03-26T10:02:16.580Z,97801.06
2023-03-26T10:05:05.006Z,97792.84
2023-03-26T10:08:01.564Z,97779.94
2023-03-26T10:10:49.499Z,97776.09
2023-03-26T10:13:28.542Z,97763.50
2023-03-26T10:16:25.501Z,97744.44
2023-03-26T10:18:52.195Z,97750.31
2023-03-26T10:21:35.993Z,97741.38
2023-03-26T10:24:11.538Z,97738.53
2023-03-26T10:27:16.496Z,97731.69
2023-03-26T10:29:49.072Z,97720.50
2023-03-26T10:32:15.785Z,97723.91
2023-03-26T10:35:27.474Z,97723.50
2023-03-26T10:38:32.236Z,97706.47
2023-03-26T10:41:05.984Z,97688.59
2023-03-26T10:44:08.846Z,97691.97
2023-03-26T10:47:10.493Z,97696.34
2023-03-26T10:50:22.622Z,97683.81
2023-03-26T10:53:02.162Z,97681.72
2023-03-26T10:55:35.315Z,97682.31
2023-03-26T10:58:11.006Z,97681.63
2023-03-26T11:00:43.520Z,97681.47
2023-03-26T11:03:23.156Z,97657.38
2023-03-26T11:06:11.033Z,97655.00
2023-03-26T11:08:41.064Z,97655.16
2023-03-26T11:11:32.709Z,97652.59
2023-03-26T11:14:13.689Z,97652.97
2023-03-26T11:16:58.658Z,97630.75
2023-03-26T11:19:38.353Z,97628.41
2023-03-26T11:22:36.451Z,97617.25
2023-03-26T11:25:36.066Z,97614.09
2023-03-26T11:28:18.328Z,97606.34
2023-03-26T11:30:47.998Z,97594.63
2023-03-26T11:33:24.177Z,97591.63
2023-03-26T11:35:57.403Z,97573.00
2023-03-26T11:38:39.107Z,97566.97
2023-03-26T11:41:15.891Z,97573.50
2023-03-26T11:44:05.953Z,97566.31
2023-03-26T11:46:39.023Z,97561.25
2023-03-26T11:49:12.509Z,97543.59
2023-03-26T11:51:41.334Z,97541.09
2023-03-26T11:54:11.634Z,97535.03
2023-03-26T11:57:04.864Z,97523.56
2023-03-26T12:00:18.430Z,97515.19
2023-03-26T12:02:46.680Z,97514.56
2023-03-26T12:05:24.943Z,97511.19
2023-03-26T12:07:58.036Z,97501.00
2023-03-26T12:10:33.295Z,97479.53
2023-03-26T12:13:05.948Z,97481.28
2023-03-26T12:15:32.802Z,97488.22
2023-03-26T12:18:19.972Z,97473.53
2023-03-26T12:20:46.994Z,97457.78
2023-03-26T12:23:52.552Z,97456.94
2023-03-26T12:26:41.695Z,97466.91
2023-03-26T12:29:12.619Z,97463.16
2023-03-26T12:31:56.129Z,97456.31
2023-03-26T12:34:35.532Z,97450.28
2023-03-26T12:37:05.134Z,97443.06
2023-03-26T12:40:09.141Z,97446.75
2023-03-26T12:44:47.043Z,97434.84
2023-03-26T12:45:24.242Z,97437.47
2023-03-26T12:48:01.705Z,97421.28
2023-03-26T12:50:44.700Z,97413.81
2023-03-26T12:53:41.160Z,97417.81
2023-03-26T12:56:29.151Z,97411.91
2023-03-26T12:59:05.587Z,97408.09
2023-03-26T13:01:51.227Z,97393.75
2023-03-26T13:05:02.285Z,97381.91
2023-03-26T13:08:03.021Z,97387.19
2023-03-26T13:10:41.146Z,97379.84
2023-03-26T13:13:29.490Z,97361.88
2023-03-26T13:16:29.141Z,97365.38
2023-03-26T13:18:58.858Z,97354.97
2023-03-26T13:21:49.139Z,97370.34
2023-03-26T13:24:43.492Z,97354.31
2023-03-26T13:27:48.823Z,97350.84
2023-03-26T13:30:28.529Z,97352.03
2023-03-26T13:32:59.531Z,97353.03
2023-03-26T13:35:34.097Z,97321.44
2023-03-26T13:38:15.411Z,97322.13
2023-03-26T13:40:47.884Z,97330.88
2023-03-26T13:43:24.926Z,97329.41
2023-03-26T13:45:57.019Z,97329.38
2023-03-26T13:48:28.412Z,97311.31
2023-03-26T13:51:05.613Z,97319.09
2023-03-26T13:53:41.970Z,97313.59
2023-03-26T13:56:14.826Z,97314.56
2023-03-26T13:58:55.561Z,97328.09
2023-03-26T14:01:50.573Z,97307.91
2023-03-26T14:04:32.582Z,97290.56
2023-03-26T14:07:18.070Z,97296.56
2023-03-26T14:10:09.623Z,97288.72
2023-03-26T14:13:07.466Z,97286.84
2023-03-26T14:15:42.772Z,97277.84
2023-03-26T14:18:37.151Z,97283.06
2023-03-26T14:21:19.412Z,97291.75
2023-03-26T14:24:13.916Z,97275.22
2023-03-26T14:27:15.604Z,97288.78
2023-03-26T14:30:22.070Z,97279.88
2023-03-26T14:32:52.325Z,97277.06
2023-03-26T14:35:35.629Z,97270.88
2023-03-26T14:38:18.186Z,97257.03
2023-03-26T14:41:20.346Z,97263.19
2023-03-26T14:44:13.140Z,97266.03
2023-03-26T14:47:00.215Z,97247.69
2023-03-26T14:49:54.623Z,97248.50
2023-03-26T14:52:41.503Z,97242.34
2023-03-26T14:55:21.918Z,97223.31
2023-03-26T14:58:27.941Z,97223.16
2023-03-26T15:01:26.839Z,97223.94
2023-03-26T15:04:12.093Z,97215.25
2023-03-26T15:06:57.440Z,97219.28
2023-03-26T15:10:02.517Z,97216.78
2023-03-26T15:12:50.963Z,97198.28
2023-03-26T15:15:39.517Z,97202.16
2023-03-26T15:18:38.498Z,97195.13
2023-03-26T15:24:53.173Z,97203.78
2023-03-26T15:27:26.809Z,97211.63
2023-03-26T15:30:21.335Z,97216.13
2023-03-26T15:33:26.403Z,97210.28
2023-03-26T15:35:53.813Z,97206.59
2023-03-26T15:38:28.385Z,97204.47
2023-03-26T15:41:32.429Z,97216.59
2023-03-26T15:46:37.701Z,97203.25
2023-03-26T15:49:16.647Z,97208.75
2023-03-26T15:51:59.079Z,97205.91
2023-03-26T15:54:47.993Z,97212.56
2023-03-26T15:57:39.219Z,97210.72
2023-03-26T16:00:26.559Z,97212.38
2023-03-26T16:03:10.110Z,97213.72
2023-03-26T16:06:02.280Z,97204.03
2023-03-26T16:08:38.713Z,97209.00
2023-03-26T16:11:12.607Z,97207.97
2023-03-26T16:13:42.257Z,97211.47
2023-03-26T16:16:14.761Z,97199.97
2023-03-26T16:18:58.454Z,97199.28
2023-03-26T16:21:37.172Z,97195.59
2023-03-26T16:24:32.833Z,97177.53
2023-03-26T16:27:08.189Z,97175.47
2023-03-26T16:30:00.926Z,97172.72
2023-03-26T16:32:33.462Z,97173.00
2023-03-26T16:35:03.461Z,97176.91
2023-03-26T16:37:36.439Z,97177.31
2023-03-26T16:40:22.292Z,97184.47
2023-03-26T16:42:55.434Z,97190.72
2023-03-26T16:46:04.130Z,97182.38
2023-03-26T16:49:09.127Z,97186.84
2023-03-26T16:52:06.779Z,97180.06
2023-03-26T16:54:51.460Z,97174.66
2023-03-26T16:57:28.448Z,97172.63
2023-03-26T17:00:16.473Z,97182.09
2023-03-26T17:03:15.542Z,97182.16
2023-03-26T17:05:54.376Z,97204.88
2023-03-26T17:08:36.058Z,97213.56
2023-03-26T17:11:17.674Z,97217.09
2023-03-26T17:14:24.048Z,97227.44
2023-03-26T17:17:27.543Z,97225.00
2023-03-26T17:20:08.557Z,97205.06
2023-03-26T17:22:43.952Z,97200.63
2023-03-26T17:25:40.061Z,97199.88
2023-03-26T17:28:16.212Z,97195.34
2023-03-26T17:30:46.605Z,97192.69
2023-03-26T17:33:28.193Z,97182.81
2023-03-26T17:36:21.390Z,97178.47
2023-03-26T17:38:49.192Z,97172.78
2023-03-26T17:41:55.348Z,97171.06
2023-03-26T17:44:36.106Z,97143.13
2023-03-26T17:47:06.599Z,97161.56
2023-03-26T17:49:35.384Z,97164.66
2023-03-26T17:52:15.657Z,97174.41
2023-03-26T17:54:49.722Z,97179.25
2023-03-26T17:57:33.828Z,97189.84
2023-03-26T18:00:02.256Z,97205.94
2023-03-26T18:02:42.332Z,97206.88
2023-03-26T18:05:12.695Z,97200.41
2023-03-26T18:08:16.902Z,97181.06
2023-03-26T18:11:08.023Z,97163.22
2023-03-26T18:13:58.509Z,97165.97
2023-03-26T18:16:31.961Z,97160.66
2023-03-26T18:19:05.144Z,97146.09
2023-03-26T18:21:38.241Z,97137.31
2023-03-26T18:24:07.812Z,97110.22
2023-03-26T18:26:53.896Z,97116.38
2023-03-26T18:29:35.309Z,97107.22
2023-03-26T18:32:09.554Z,97114.75
2023-03-26T18:34:49.866Z,97123.66
2023-03-26T18:37:22.937Z,97128.25
2023-03-26T18:40:14.565Z,97124.72
2023-03-26T18:43:00.872Z,97108.66
2023-03-26T18:45:37.369Z,97107.88
2023-03-26T18:48:20.671Z,97101.47
2023-03-26T18:51:05.192Z,97108.88
2023-03-26T18:53:45.917Z,97106.03
2023-03-26T18:56:28.606Z,97103.00
2023-03-26T18:58:58.907Z,97099.00
2023-03-26T19:01:30.755Z,97107.56
2023-03-26T19:03:59.852Z,97080.94
2023-03-26T19:06:26.881Z,97091.50
2023-03-26T19:08:54.578Z,97103.56
2023-03-26T19:11:21.632Z,97112.72
2023-03-26T19:14:03.397Z,97095.44
2023-03-26T19:16:37.573Z,97108.78
2023-03-26T19:19:07.854Z,97099.44
2023-03-26T19:21:36.309Z,97088.28
2023-03-26T19:24:05.443Z,97078.94
2023-03-26T19:26:32.636Z,97073.78
2023-03-26T19:29:00.750Z,97074.03
2023-03-26T19:31:32.736Z,97055.22
2023-03-26T19:34:02.268Z,97063.25
2023-03-26T19:36:34.577Z,97059.56
2023-03-26T19:39:02.097Z,97071.66
2023-03-26T19:41:38.769Z,97078.03
2023-03-26T19:44:26.781Z,97095.78
2023-03-26T19:47:05.475Z,97088.13
2023-03-26T19:49:42.277Z,97087.28
2023-03-26T19:52:17.627Z,97074.81
2023-03-26T19:55:03.848Z,97070.41
2023-03-26T19:57:32.978Z,97075.69
2023-03-26T20:00:00.655Z,97076.09
2023-03-26T20:02:27.645Z,97083.84
2023-03-26T20:04:54.495Z,97093.94
2023-03-26T20:07:35.825Z,97087.09
2023-03-26T20:10:05.594Z,97082.31
2023-03-26T20:12:33.024Z,97089.06
2023-03-26T20:15:00.916Z,97091.44
2023-03-26T20:17:30.958Z,97085.19
2023-03-26T20:19:57.923Z,97087.34
2023-03-26T20:22:25.221Z,97079.19
2023-03-26T20:24:52.705Z,97082.06
2023-03-26T20:27:19.520Z,97062.44
2023-03-26T20:29:46.556Z,97073.34
2023-03-26T20:32:23.643Z,97068.19
2023-03-26T20:34:51.708Z,97068.41
2023-03-26T20:37:18.974Z,97069.38
2023-03-26T20:39:46.426Z,97079.84
2023-03-26T20:42:15.451Z,97071.31
2023-03-26T20:44:43.107Z,97077.91
2023-03-26T20:47:11.452Z,97089.69
2023-03-26T20:49:38.457Z,97139.53
2023-03-26T20:52:05.304Z,97136.78
2023-03-26T20:54:32.093Z,97134.50
2023-03-26T20:56:58.896Z,97141.06
2023-03-26T20:59:27.725Z,97143.59
2023-03-26T21:01:56.883Z,97135.31
2023-03-26T21:04:26.267Z,97126.81
2023-03-26T21:07:07.170Z,97123.34
2023-03-26T21:09:44.813Z,97108.00
2023-03-26T21:12:32.215Z,97113.72
2023-03-26T21:14:59.595Z,97113.97
2023-03-26T21:20:16.738Z,97103.91
2023-03-26T21:23:07.561Z,97106.66
2023-03-26T21:25:53.117Z,97082.69
2023-03-26T21:28:35.839Z,97076.72
2023-03-26T21:31:14.857Z,97081.59
2023-03-26T21:33:42.597Z,97089.00
2023-03-26T21:36:10.865Z,97083.75
2023-03-26T21:38:38.762Z,97078.84
2023-03-26T21:41:05.864Z,97093.09
2023-03-26T21:43:32.635Z,97103.75
2023-03-26T21:45:59.668Z,97097.66
2023-03-26T21:48:28.435Z,97107.72
2023-03-26T21:50:55.589Z,97106.75
2023-03-26T21:53:24.147Z,97087.59
2023-03-26T21:56:06.222Z,97103.28
2023-03-26T21:58:51.582Z,97101.59
2023-03-26T22:01:30.529Z,97096.66
2023-03-26T22:03:57.251Z,97087.69
2023-03-26T22:06:43.408Z,97093.56
2023-03-26T22:09:12.819Z,97103.88
2023-03-26T22:11:42.073Z,97106.50
2023-03-26T22:14:09.384Z,97099.19
2023-03-26T22:16:35.983Z,97107.09
2023-03-26T22:19:02.877Z,97102.19
2023-03-26T22:21:29.782Z,97100.25
2023-03-26T22:23:56.533Z,97086.59
2023-03-26T22:26:24.745Z,97081.06
2023-03-26T22:28:51.813Z,97062.06
2023-03-26T22:31:18.593Z,97059.28
2023-03-26T22:33:45.389Z,97028.16
2023-03-26T22:36:23.485Z,97035.50
2023-03-26T22:38:54.435Z,97023.22
2023-03-26T22:41:22.179Z,97012.34
2023-03-26T22:43:52.053Z,96998.00
2023-03-26T22:46:19.457Z,96980.63
2023-03-26T22:48:48.236Z,96988.91
2023-03-26T22:51:16.118Z,96973.94
2023-03-26T22:53:43.652Z,96964.13
2023-03-26T22:56:11.702Z,96963.53
2023-03-26T22:58:38.387Z,96956.81
2023-03-26T23:01:09.512Z,96948.69
2023-03-26T23:03:37.228Z,96947.03
2023-03-26T23:06:07.186Z,96940.94
2023-03-26T23:08:35.108Z,96934.94
2023-03-26T23:11:02.100Z,96927.97
2023-03-26T23:13:28.870Z,96927.03
2023-03-26T23:15:59.657Z,96931.47
2023-03-26T23:18:26.441Z,96915.69
2023-03-26T23:20:58.582Z,96911.72
2023-03-26T23:23:28.768Z,96904.19
2023-03-26T23:26:04.610Z,96897.94
2023-03-26T23:28:33.313Z,96905.00
2023-03-26T23:31:02.631Z,96906.22
2023-03-26T23:33:31.939Z,96911.44
2023-03-26T23:36:00.336Z,96907.50
2023-03-26T23:38:29.173Z,96906.06
2023-03-26T23:41:15.306Z,96912.41
2023-03-26T23:43:53.414Z,96922.69
2023-03-26T23:46:34.697Z,96920.53
2023-03-26T23:49:04.745Z,96920.88
2023-03-26T23:51:32.373Z,96908.41
2023-03-26T23:54:00.281Z,96903.91
2023-03-26T23:56:30.139Z,96890.25
2023-03-26T23:58:57.202Z,96881.28
